Time;durP1;ratioP1;P1;durP2;ratioP2;P2;SDS_P1;SDS_P2;PMS_P1;PMS_P2;Temp;Humidity;BMP_temperature;BMP_pressure;BME280_temperature;BME280_humidity;BME280_pressure;Samples;Min_cycle;Max_cycle;Signal;HPM_P1;HPM_P2
2022/04/11 00:02:00;;;;;;;9.52;5.35;;;;;;;;;;5065291;28;20427;-83
2022/04/11 00:04:26;;;;;;;10.02;5.60;;;;;;;;;;5067705;28;20427;-83
2022/04/11 00:06:54;;;;;;;9.95;6.10;;;;;;;;;;5067718;28;20478;-82
2022/04/11 00:09:20;;;;;;;9.53;6.10;;;;;;;;;;5067701;28;20466;-82
2022/04/11 00:11:47;;;;;;;9.55;5.32;;;;;;;;;;5068078;28;20469;-84
2022/04/11 00:14:13;;;;;;;10.35;5.97;;;;;;;;;;5068245;28;20786;-82
2022/04/11 00:16:39;;;;;;;8.93;5.88;;;;;;;;;;5065243;28;20424;-82
2022/04/11 00:19:06;;;;;;;10.48;5.63;;;;;;;;;;5066798;28;20839;-83
2022/04/11 00:21:32;;;;;;;7.20;4.83;;;;;;;;;;5067778;28;20545;-83
2022/04/11 00:24:00;;;;;;;13.02;6.20;;;;;;;;;;5067869;28;20456;-83
2022/04/11 00:26:26;;;;;;;11.55;4.53;;;;;;;;;;5061903;28;20435;-81
2022/04/11 00:28:53;;;;;;;7.93;4.47;;;;;;;;;;5060574;28;20978;-81
2022/04/11 00:31:19;;;;;;;8.40;4.90;;;;;;;;;;5061081;28;20798;-81
2022/04/11 00:33:45;;;;;;;9.82;5.30;;;;;;;;;;5061982;28;20431;-79
2022/04/11 00:36:12;;;;;;;8.60;4.32;;;;;;;;;;5060943;28;20984;-82
2022/04/11 00:38:38;;;;;;;9.80;4.40;;;;;;;;;;5060344;28;20425;-82
2022/04/11 00:41:06;;;;;;;14.30;5.70;;;;;;;;;;5061344;28;20462;-81
2022/04/11 00:43:32;;;;;;;10.63;4.85;;;;;;;;;;5060259;28;20489;-81
2022/04/11 00:45:59;;;;;;;9.55;4.40;;;;;;;;;;5062092;28;20659;-82
2022/04/11 00:48:25;;;;;;;8.60;4.90;;;;;;;;;;5060817;28;20429;-80
2022/04/11 00:50:51;;;;;;;7.90;4.18;;;;;;;;;;5063581;28;20480;-81
2022/04/11 00:53:18;;;;;;;11.57;4.57;;;;;;;;;;5081231;28;20441;-81
2022/04/11 00:55:44;;;;;;;9.10;4.00;;;;;;;;;;5081142;28;20430;-79
2022/04/11 00:58:12;;;;;;;9.65;4.72;;;;;;;;;;5081855;28;20423;-79
2022/04/11 01:00:39;;;;;;;7.38;4.30;;;;;;;;;;5077766;28;20441;-80
2022/04/11 01:03:05;;;;;;;7.53;4.00;;;;;;;;;;5080403;28;20442;-80
2022/04/11 01:05:31;;;;;;;5.45;4.43;;;;;;;;;;5080056;28;20421;-81
2022/04/11 01:07:58;;;;;;;9.40;5.10;;;;;;;;;;5079869;28;20426;-80
2022/04/11 01:10:24;;;;;;;8.60;4.82;;;;;;;;;;5081923;28;20435;-80
2022/04/11 01:12:51;;;;;;;7.15;4.72;;;;;;;;;;5081192;28;20430;-80
2022/04/11 01:15:18;;;;;;;10.85;4.55;;;;;;;;;;5083291;28;20427;-79
2022/04/11 01:17:44;;;;;;;8.03;4.73;;;;;;;;;;5081445;28;20495;-80
2022/04/11 01:20:12;;;;;;;13.23;4.95;;;;;;;;;;5081134;28;20455;-80
2022/04/11 01:22:40;;;;;;;8.55;4.22;;;;;;;;;;5080197;28;20427;-80
2022/04/11 01:25:07;;;;;;;13.68;4.80;;;;;;;;;;5080594;28;20430;-82
2022/04/11 01:27:33;;;;;;;12.95;4.68;;;;;;;;;;5083689;28;20422;-80
2022/04/11 01:29:59;;;;;;;9.70;4.80;;;;;;;;;;5080993;28;20474;-81
2022/04/11 01:32:26;;;;;;;6.80;4.53;;;;;;;;;;5079400;28;20421;-82
2022/04/11 01:34:52;;;;;;;7.28;4.28;;;;;;;;;;5081207;28;20422;-81
2022/04/11 01:37:18;;;;;;;11.32;4.70;;;;;;;;;;5082066;28;20777;-81
2022/04/11 01:39:46;;;;;;;7.35;4.25;;;;;;;;;;5080118;28;20936;-82
2022/04/11 01:42:12;;;;;;;6.47;4.70;;;;;;;;;;5080580;28;20422;-80
2022/04/11 01:44:38;;;;;;;7.28;4.70;;;;;;;;;;5082157;28;20460;-81
2022/04/11 01:47:04;;;;;;;7.78;4.80;;;;;;;;;;5080295;28;20943;-81
2022/04/11 01:49:31;;;;;;;11.07;5.70;;;;;;;;;;5081114;28;20962;-82
2022/04/11 01:51:57;;;;;;;9.00;4.93;;;;;;;;;;5081335;28;20467;-81
2022/04/11 01:54:23;;;;;;;7.60;4.65;;;;;;;;;;5081669;28;20429;-82
2022/04/11 01:56:51;;;;;;;13.82;5.60;;;;;;;;;;5075977;28;20826;-82
2022/04/11 01:59:17;;;;;;;8.50;5.00;;;;;;;;;;5078986;28;20433;-81
2022/04/11 02:01:44;;;;;;;7.55;5.03;;;;;;;;;;5082113;28;20418;-81
2022/04/11 02:04:10;;;;;;;6.40;4.10;;;;;;;;;;5081041;28;20434;-81
2022/04/11 02:06:36;;;;;;;8.20;4.63;;;;;;;;;;5083270;28;20986;-81
2022/04/11 02:09:03;;;;;;;6.72;4.70;;;;;;;;;;5080177;28;20431;-80
2022/04/11 02:11:29;;;;;;;8.65;4.15;;;;;;;;;;5078273;28;20774;-81
2022/04/11 02:13:57;;;;;;;7.32;4.90;;;;;;;;;;5080180;28;20430;-81
2022/04/11 02:16:23;;;;;;;6.80;4.47;;;;;;;;;;5080379;28;20481;-80
2022/04/11 02:18:49;;;;;;;8.68;4.43;;;;;;;;;;5081994;28;20461;-80
2022/04/11 02:21:16;;;;;;;8.32;4.25;;;;;;;;;;5082244;28;20833;-81
2022/04/11 02:23:42;;;;;;;7.82;4.93;;;;;;;;;;5081042;28;20772;-83
2022/04/11 02:26:08;;;;;;;8.97;4.77;;;;;;;;;;5083183;28;20492;-82
2022/04/11 02:28:35;;;;;;;8.25;4.57;;;;;;;;;;5081544;28;20434;-80
2022/04/11 02:31:02;;;;;;;5.93;4.55;;;;;;;;;;5080589;28;20436;-81
2022/04/11 02:33:28;;;;;;;8.85;4.60;;;;;;;;;;5082102;28;20631;-81
2022/04/11 02:35:54;;;;;;;8.40;4.97;;;;;;;;;;5080745;28;20429;-80
2022/04/11 02:38:21;;;;;;;7.25;4.50;;;;;;;;;;5080291;28;20920;-80
2022/04/11 02:40:47;;;;;;;7.47;4.70;;;;;;;;;;5079750;28;20427;-79
2022/04/11 02:43:13;;;;;;;9.95;4.50;;;;;;;;;;5081599;28;20431;-81
2022/04/11 02:45:39;;;;;;;7.72;4.50;;;;;;;;;;5074796;28;20423;-80
2022/04/11 02:48:07;;;;;;;7.90;4.93;;;;;;;;;;5082806;28;20792;-80
2022/04/11 02:50:33;;;;;;;9.15;4.82;;;;;;;;;;5081142;28;20428;-81
2022/04/11 02:53:00;;;;;;;11.23;5.32;;;;;;;;;;5084725;28;20421;-80
2022/04/11 02:55:26;;;;;;;11.25;4.88;;;;;;;;;;5087988;28;20431;-81
2022/04/11 02:57:52;;;;;;;9.10;5.07;;;;;;;;;;5084480;28;20422;-80
2022/04/11 03:00:18;;;;;;;8.68;5.30;;;;;;;;;;5084633;28;20857;-81
2022/04/11 03:02:45;;;;;;;8.27;5.70;;;;;;;;;;5082235;28;20423;-82
2022/04/11 03:05:12;;;;;;;9.60;5.60;;;;;;;;;;5084918;28;20433;-81
2022/04/11 03:07:38;;;;;;;12.50;6.25;;;;;;;;;;5085299;28;20853;-81
2022/04/11 03:10:05;;;;;;;11.37;5.93;;;;;;;;;;5086054;28;20513;-80
2022/04/11 03:12:32;;;;;;;8.90;5.70;;;;;;;;;;5084816;28;20432;-80
2022/04/11 03:14:58;;;;;;;10.40;5.90;;;;;;;;;;5086932;28;20478;-82
2022/04/11 03:17:24;;;;;;;11.93;6.15;;;;;;;;;;5086112;28;20426;-82
2022/04/11 03:19:51;;;;;;;8.45;5.47;;;;;;;;;;5084393;28;20429;-79
2022/04/11 03:22:18;;;;;;;9.50;5.40;;;;;;;;;;5084820;28;20426;-82
2022/04/11 03:24:44;;;;;;;9.77;5.88;;;;;;;;;;5087296;28;20834;-80
2022/04/11 03:27:11;;;;;;;8.55;5.60;;;;;;;;;;5087666;28;20931;-82
2022/04/11 03:29:37;;;;;;;10.15;5.68;;;;;;;;;;5087191;28;20488;-81
2022/04/11 03:32:03;;;;;;;7.90;5.10;;;;;;;;;;5086257;28;20487;-80
2022/04/11 03:34:30;;;;;;;6.93;5.53;;;;;;;;;;5087071;28;20426;-81
2022/04/11 03:36:56;;;;;;;8.07;5.07;;;;;;;;;;5086045;28;20459;-82
2022/04/11 03:39:23;;;;;;;10.48;6.28;;;;;;;;;;5085617;28;20457;-82
2022/04/11 03:41:50;;;;;;;11.03;6.03;;;;;;;;;;5086542;28;20426;-82
2022/04/11 03:44:16;;;;;;;9.63;6.10;;;;;;;;;;5086011;28;20434;-82
2022/04/11 03:46:43;;;;;;;8.85;6.30;;;;;;;;;;5085932;28;20422;-82
2022/04/11 03:49:09;;;;;;;8.63;6.80;;;;;;;;;;5085146;28;20427;-82
2022/04/11 03:51:35;;;;;;;12.82;6.35;;;;;;;;;;5087796;28;20826;-82
2022/04/11 03:54:01;;;;;;;10.43;6.32;;;;;;;;;;5084744;28;21023;-83
2022/04/11 03:56:29;;;;;;;10.07;6.00;;;;;;;;;;5089060;28;20507;-82
2022/04/11 03:58:55;;;;;;;12.80;6.97;;;;;;;;;;5085366;28;20862;-82
2022/04/11 04:01:21;;;;;;;9.20;6.57;;;;;;;;;;5087490;28;20485;-83
2022/04/11 04:03:47;;;;;;;10.30;6.97;;;;;;;;;;5086774;28;20554;-81
2022/04/11 04:06:14;;;;;;;8.15;6.40;;;;;;;;;;5088226;28;20426;-82
2022/04/11 04:08:40;;;;;;;12.25;6.50;;;;;;;;;;5087090;28;20438;-81
2022/04/11 04:11:07;;;;;;;11.43;7.32;;;;;;;;;;5086798;28;20414;-82
2022/04/11 04:13:35;;;;;;;10.30;7.30;;;;;;;;;;5087570;28;21118;-81
2022/04/11 04:16:01;;;;;;;10.48;7.38;;;;;;;;;;5089172;28;20434;-82
2022/04/11 04:18:28;;;;;;;9.32;7.25;;;;;;;;;;5085844;28;20426;-82
2022/04/11 04:20:54;;;;;;;11.05;7.45;;;;;;;;;;5086849;28;20439;-82
2022/04/11 04:23:20;;;;;;;11.02;7.38;;;;;;;;;;5086912;28;20455;-83
2022/04/11 04:25:46;;;;;;;12.30;7.43;;;;;;;;;;5087715;28;20417;-83
2022/04/11 04:28:17;;;;;;;10.10;7.25;;;;;;;;;;5084664;28;20651;-83
2022/04/11 04:30:44;;;;;;;11.77;7.13;;;;;;;;;;5087173;28;20432;-82
2022/04/11 04:33:10;;;;;;;14.43;7.75;;;;;;;;;;5087545;28;20511;-83
2022/04/11 04:35:37;;;;;;;11.77;7.00;;;;;;;;;;5088218;28;20542;-83
2022/04/11 04:38:03;;;;;;;12.23;7.65;;;;;;;;;;5087454;28;20856;-79
2022/04/11 04:40:29;;;;;;;11.45;7.25;;;;;;;;;;5087524;28;20420;-83
2022/04/11 04:42:56;;;;;;;11.27;7.57;;;;;;;;;;5088807;28;20415;-82
2022/04/11 04:45:23;;;;;;;14.27;8.40;;;;;;;;;;5091114;28;20427;-83
2022/04/11 04:47:50;;;;;;;11.70;7.60;;;;;;;;;;5089958;28;20462;-83
2022/04/11 04:50:17;;;;;;;12.77;8.17;;;;;;;;;;5085985;28;20453;-83
2022/04/11 04:52:43;;;;;;;15.82;7.78;;;;;;;;;;5088114;28;20475;-83
2022/04/11 04:55:09;;;;;;;12.02;7.70;;;;;;;;;;5089008;28;20489;-80
2022/04/11 04:57:36;;;;;;;12.50;8.70;;;;;;;;;;5089318;28;20418;-81
2022/04/11 05:00:02;;;;;;;12.27;8.48;;;;;;;;;;5086677;28;20434;-81
2022/04/11 05:02:35;;;;;;;14.10;8.85;;;;;;;;;;5088394;28;20431;-82
2022/04/11 05:05:04;;;;;;;13.60;8.75;;;;;;;;;;5089329;28;20516;-82
2022/04/11 05:07:30;;;;;;;14.60;9.60;;;;;;;;;;5087099;28;20464;-82
2022/04/11 05:09:57;;;;;;;15.13;9.00;;;;;;;;;;5090331;28;20437;-81
2022/04/11 05:12:23;;;;;;;12.90;9.50;;;;;;;;;;5088929;28;20475;-82
2022/04/11 05:14:49;;;;;;;13.52;8.98;;;;;;;;;;5090294;28;20435;-81
2022/04/11 05:17:15;;;;;;;12.15;8.80;;;;;;;;;;5089372;28;20445;-81
2022/04/11 05:19:41;;;;;;;14.77;9.50;;;;;;;;;;5090540;28;20468;-79
2022/04/11 05:22:09;;;;;;;11.70;8.95;;;;;;;;;;5081476;28;20428;-81
2022/04/11 05:24:35;;;;;;;12.85;9.00;;;;;;;;;;5082937;28;20432;-82
2022/04/11 05:27:01;;;;;;;12.68;8.80;;;;;;;;;;5081406;28;20446;-79
2022/04/11 05:29:28;;;;;;;13.05;8.90;;;;;;;;;;5080898;28;20463;-80
2022/04/11 05:31:54;;;;;;;16.67;9.70;;;;;;;;;;5080719;28;20486;-82
2022/04/11 05:34:20;;;;;;;13.88;9.15;;;;;;;;;;5079283;28;20454;-82
2022/04/11 05:36:46;;;;;;;11.30;8.33;;;;;;;;;;5081937;28;20414;-81
2022/04/11 05:39:14;;;;;;;14.85;9.25;;;;;;;;;;5083416;28;20429;-82
2022/04/11 05:41:40;;;;;;;14.10;9.75;;;;;;;;;;5080745;28;20427;-80
2022/04/11 05:44:06;;;;;;;11.47;9.87;;;;;;;;;;5079532;28;20435;-81
2022/04/11 05:46:33;;;;;;;14.73;10.05;;;;;;;;;;5079643;28;20982;-80
2022/04/11 05:48:59;;;;;;;17.33;10.50;;;;;;;;;;5080017;28;20794;-80
2022/04/11 05:51:26;;;;;;;15.57;9.95;;;;;;;;;;5080423;28;20436;-80
2022/04/11 05:53:52;;;;;;;14.48;10.20;;;;;;;;;;5153640;22;20462;-84
2022/04/11 05:56:20;;;;;;;22.17;10.52;;;;;;;;;;5062398;28;20447;-83
2022/04/11 05:58:46;;;;;;;14.27;9.85;;;;;;;;;;5061270;28;20485;-83
2022/04/11 06:01:12;;;;;;;17.40;11.93;;;;;;;;;;5059896;28;20483;-83
2022/04/11 06:03:39;;;;;;;14.65;10.65;;;;;;;;;;5074619;28;20426;-84
2022/04/11 06:06:05;;;;;;;16.30;10.68;;;;;;;;;;5084521;28;20829;-83
2022/04/11 06:08:31;;;;;;;11.90;10.13;;;;;;;;;;5084181;28;20415;-83
2022/04/11 06:10:58;;;;;;;13.82;11.02;;;;;;;;;;5085385;28;20410;-83
2022/04/11 06:13:25;;;;;;;14.82;11.10;;;;;;;;;;5085695;28;20410;-84
2022/04/11 06:15:51;;;;;;;18.45;11.95;;;;;;;;;;5086270;28;20407;-82
2022/04/11 06:18:18;;;;;;;18.38;10.60;;;;;;;;;;5086202;28;20436;-84
2022/04/11 06:20:46;;;;;;;16.95;10.90;;;;;;;;;;5084801;28;20849;-82
2022/04/11 06:23:12;;;;;;;17.90;11.90;;;;;;;;;;5084278;28;20432;-83
2022/04/11 06:25:38;;;;;;;16.45;14.10;;;;;;;;;;5085887;28;20467;-84
2022/04/11 06:28:04;;;;;;;19.92;13.93;;;;;;;;;;5091081;28;20421;-82
2022/04/11 06:30:32;;;;;;;16.77;15.00;;;;;;;;;;5092239;28;20469;-83
2022/04/11 06:32:58;;;;;;;14.05;12.27;;;;;;;;;;5090223;28;20420;-84
2022/04/11 06:35:24;;;;;;;17.92;12.32;;;;;;;;;;5089960;28;20487;-83
2022/04/11 06:37:51;;;;;;;16.40;12.90;;;;;;;;;;5088838;28;20414;-83
2022/04/11 06:40:17;;;;;;;19.95;13.95;;;;;;;;;;5088207;28;20504;-83
2022/04/11 06:42:44;;;;;;;20.08;13.55;;;;;;;;;;5092389;28;20497;-84
2022/04/11 06:45:10;;;;;;;20.13;13.40;;;;;;;;;;5087522;28;20407;-84
2022/04/11 06:47:38;;;;;;;20.10;14.23;;;;;;;;;;5089881;28;20416;-83
2022/04/11 06:50:04;;;;;;;20.33;14.90;;;;;;;;;;5086071;28;20441;-84
2022/04/11 06:52:30;;;;;;;19.63;14.75;;;;;;;;;;5086034;28;20466;-83
2022/04/11 06:54:57;;;;;;;16.70;13.73;;;;;;;;;;5085804;28;20433;-84
2022/04/11 06:57:24;;;;;;;21.03;13.30;;;;;;;;;;5082357;28;20821;-83
2022/04/11 06:59:50;;;;;;;18.10;13.93;;;;;;;;;;5085277;28;20421;-83
2022/04/11 07:02:17;;;;;;;16.45;13.50;;;;;;;;;;5086036;28;20413;-83
2022/04/11 07:04:44;;;;;;;20.10;13.63;;;;;;;;;;5086401;28;20426;-84
2022/04/11 07:07:10;;;;;;;19.05;13.73;;;;;;;;;;5085804;28;20763;-85
2022/04/11 07:09:37;;;;;;;15.73;12.40;;;;;;;;;;5086201;28;20414;-84
2022/04/11 07:12:03;;;;;;;17.90;11.43;;;;;;;;;;5085634;28;20423;-84
2022/04/11 07:14:29;;;;;;;17.42;10.40;;;;;;;;;;5085768;28;20427;-84
2022/04/11 07:16:55;;;;;;;16.90;10.02;;;;;;;;;;5086165;28;20419;-85
2022/04/11 07:19:22;;;;;;;15.05;9.98;;;;;;;;;;5085314;28;20488;-84
2022/04/11 07:21:49;;;;;;;14.10;9.10;;;;;;;;;;5086052;28;20451;-84
2022/04/11 07:24:16;;;;;;;14.17;9.33;;;;;;;;;;5085621;28;20950;-84
2022/04/11 07:26:42;;;;;;;13.63;9.70;;;;;;;;;;5088048;28;20417;-84
2022/04/11 07:29:09;;;;;;;14.70;8.75;;;;;;;;;;5082380;28;20799;-84
2022/04/11 07:31:35;;;;;;;14.50;8.30;;;;;;;;;;5086113;28;20440;-84
2022/04/11 07:34:02;;;;;;;9.93;7.55;;;;;;;;;;5084750;28;20426;-84
2022/04/11 07:36:29;;;;;;;11.30;7.50;;;;;;;;;;5084922;28;20419;-85
2022/04/11 07:38:56;;;;;;;10.45;6.40;;;;;;;;;;5081096;28;20964;-85
2022/04/11 07:41:23;;;;;;;15.35;7.35;;;;;;;;;;5086838;28;20410;-84
2022/04/11 07:43:50;;;;;;;10.32;6.30;;;;;;;;;;5086048;28;20435;-84
2022/04/11 07:46:16;;;;;;;11.83;6.17;;;;;;;;;;5085983;28;20418;-84
2022/04/11 07:48:42;;;;;;;9.55;6.88;;;;;;;;;;5083430;28;20457;-84
2022/04/11 07:51:09;;;;;;;9.23;5.40;;;;;;;;;;5084742;28;20422;-84
2022/04/11 07:53:36;;;;;;;13.52;5.90;;;;;;;;;;5080176;28;20441;-85
2022/04/11 07:56:03;;;;;;;10.60;5.78;;;;;;;;;;5084837;28;20467;-85
2022/04/11 07:58:30;;;;;;;10.15;4.90;;;;;;;;;;5082966;28;20945;-85
2022/04/11 08:00:56;;;;;;;10.02;5.63;;;;;;;;;;5078028;28;20410;-84
2022/04/11 08:03:22;;;;;;;8.48;5.68;;;;;;;;;;5079624;28;20432;-85
2022/04/11 08:05:49;;;;;;;9.45;5.60;;;;;;;;;;5084538;28;20468;-85
2022/04/11 08:08:15;;;;;;;8.05;4.60;;;;;;;;;;5081792;28;20427;-84
2022/04/11 08:10:42;;;;;;;9.02;5.03;;;;;;;;;;5084120;28;20414;-85
2022/04/11 08:13:09;;;;;;;7.70;5.40;;;;;;;;;;5083762;28;20412;-85
2022/04/11 08:15:36;;;;;;;6.05;4.97;;;;;;;;;;5082473;28;20802;-85
2022/04/11 08:18:02;;;;;;;6.45;5.25;;;;;;;;;;5082341;28;20445;-85
2022/04/11 08:20:28;;;;;;;6.90;4.43;;;;;;;;;;5083899;28;20434;-84
2022/04/11 08:22:55;;;;;;;9.63;4.80;;;;;;;;;;5081882;28;20502;-85
2022/04/11 08:25:21;;;;;;;8.70;3.90;;;;;;;;;;5084031;28;20477;-85
2022/04/11 08:27:48;;;;;;;4.47;3.03;;;;;;;;;;5083707;28;20690;-85
2022/04/11 08:30:15;;;;;;;4.95;2.95;;;;;;;;;;5083198;28;20500;-84
2022/04/11 08:32:43;;;;;;;3.75;3.00;;;;;;;;;;5079426;28;20455;-85
2022/04/11 08:35:09;;;;;;;5.20;2.30;;;;;;;;;;5080336;28;20903;-85
2022/04/11 08:37:37;;;;;;;5.18;1.50;;;;;;;;;;5080790;28;20414;-85
2022/04/11 08:40:04;;;;;;;3.60;1.10;;;;;;;;;;5081077;28;20410;-85
2022/04/11 08:42:30;;;;;;;3.25;1.08;;;;;;;;;;5081543;28;20420;-85
2022/04/11 08:44:57;;;;;;;3.70;1.10;;;;;;;;;;5082720;28;20438;-85
2022/04/11 08:47:25;;;;;;;2.28;1.30;;;;;;;;;;5083413;28;20418;-85
2022/04/11 08:49:53;;;;;;;5.60;2.00;;;;;;;;;;5081433;28;20411;-84
2022/04/11 08:52:19;;;;;;;4.67;2.10;;;;;;;;;;5082708;28;20892;-85
2022/04/11 08:54:46;;;;;;;2.63;1.50;;;;;;;;;;5084224;28;20415;-84
2022/04/11 08:57:12;;;;;;;4.07;1.60;;;;;;;;;;5085284;28;20418;-85
2022/04/11 08:59:38;;;;;;;4.13;1.48;;;;;;;;;;5085230;28;20425;-85
2022/04/11 09:02:08;;;;;;;3.08;1.48;;;;;;;;;;5082986;28;20422;-85
2022/04/11 09:04:48;;;;;;;4.07;1.70;;;;;;;;;;5082816;28;20414;-85
2022/04/11 09:07:14;;;;;;;3.95;1.60;;;;;;;;;;5081503;28;20908;-85
2022/04/11 09:09:40;;;;;;;4.28;1.90;;;;;;;;;;5082957;28;20434;-85
2022/04/11 09:12:09;;;;;;;3.10;1.45;;;;;;;;;;5084789;28;20414;-85
2022/04/11 09:14:37;;;;;;;3.87;1.93;;;;;;;;;;5082577;28;20421;-85
2022/04/11 09:17:04;;;;;;;3.22;1.70;;;;;;;;;;5084542;28;20499;-85
2022/04/11 09:19:31;;;;;;;3.83;1.88;;;;;;;;;;5087785;28;20940;-85
2022/04/11 09:21:59;;;;;;;3.53;1.98;;;;;;;;;;5079997;28;20525;-85
2022/04/11 09:24:26;;;;;;;5.18;2.30;;;;;;;;;;5078105;28;20476;-85
2022/04/11 09:26:55;;;;;;;4.03;1.98;;;;;;;;;;5084191;28;20423;-85
2022/04/11 09:29:22;;;;;;;4.47;1.80;;;;;;;;;;5078828;28;20415;-85
2022/04/11 09:31:48;;;;;;;6.35;1.77;;;;;;;;;;5080662;28;20425;-85
2022/04/11 09:34:15;;;;;;;3.13;1.50;;;;;;;;;;5082411;28;20422;-85
2022/04/11 09:36:45;;;;;;;5.35;2.10;;;;;;;;;;5079321;28;20944;-85
2022/04/11 09:39:13;;;;;;;4.50;1.40;;;;;;;;;;5080255;28;20431;-85
2022/04/11 09:41:42;;;;;;;4.20;1.60;;;;;;;;;;5079456;28;20426;-85
2022/04/11 09:44:19;;;;;;;4.20;2.30;;;;;;;;;;5080037;28;20428;-85
2022/04/11 09:46:45;;;;;;;4.20;2.20;;;;;;;;;;5080712;28;20431;-85
2022/04/11 09:49:12;;;;;;;4.67;2.00;;;;;;;;;;5080329;28;20459;-84
2022/04/11 09:51:38;;;;;;;5.35;2.25;;;;;;;;;;5078177;28;20432;-84
2022/04/11 09:54:19;;;;;;;3.78;2.00;;;;;;;;;;5080054;28;20417;-83
2022/04/11 09:56:47;;;;;;;4.45;2.00;;;;;;;;;;5081666;28;20925;-86
2022/04/11 09:59:13;;;;;;;3.92;2.00;;;;;;;;;;5082782;28;20450;-84
2022/04/11 10:01:40;;;;;;;4.22;2.00;;;;;;;;;;5083564;28;20505;-84
2022/04/11 10:04:06;;;;;;;3.45;2.17;;;;;;;;;;5084724;28;20423;-83
2022/04/11 10:06:32;;;;;;;4.53;2.10;;;;;;;;;;5081378;28;20477;-86
2022/04/11 10:08:59;;;;;;;4.80;2.30;;;;;;;;;;5081888;28;20928;-86
2022/04/11 10:11:25;;;;;;;3.78;2.00;;;;;;;;;;5080715;28;20831;-86
2022/04/11 10:13:55;;;;;;;4.20;2.25;;;;;;;;;;5083358;28;21340;-83
2022/04/11 10:16:22;;;;;;;3.95;2.47;;;;;;;;;;5082088;28;20454;-83
2022/04/11 10:18:48;;;;;;;3.17;2.00;;;;;;;;;;5084424;28;20432;-83
2022/04/11 10:21:15;;;;;;;6.00;2.60;;;;;;;;;;5080208;28;20494;-84
2022/04/11 10:23:47;;;;;;;4.20;2.58;;;;;;;;;;5083504;28;20493;-85
2022/04/11 10:26:14;;;;;;;6.35;2.13;;;;;;;;;;5079201;28;20473;-86
2022/04/11 10:28:44;;;;;;;4.40;2.10;;;;;;;;;;5081778;28;20422;-86
2022/04/11 10:31:12;;;;;;;4.70;1.50;;;;;;;;;;5079404;28;20789;-86
2022/04/11 10:33:46;;;;;;;5.55;1.90;;;;;;;;;;5078072;28;20446;-86
2022/04/11 10:36:31;;;;;;;3.47;1.92;;;;;;;;;;5081842;28;20465;-84
2022/04/11 10:39:15;;;;;;;4.18;1.80;;;;;;;;;;5080329;28;20493;-85
2022/04/11 10:42:02;;;;;;;2.88;1.50;;;;;;;;;;5082384;28;20422;-84
2022/04/11 10:44:32;;;;;;;3.20;1.60;;;;;;;;;;5082130;28;20483;-84
2022/04/11 10:47:17;;;;;;;5.38;2.38;;;;;;;;;;5069330;28;20471;-84
2022/04/11 10:49:58;;;;;;;4.57;2.10;;;;;;;;;;5081842;28;20820;-84
2022/04/11 10:52:30;;;;;;;3.90;2.10;;;;;;;;;;5081358;28;20417;-84
2022/04/11 10:54:57;;;;;;;2.60;1.73;;;;;;;;;;5077555;28;20802;-84
2022/04/11 10:57:32;;;;;;;5.50;1.90;;;;;;;;;;5078737;28;20461;-85
2022/04/11 11:00:08;;;;;;;3.70;1.83;;;;;;;;;;5079670;28;20463;-86
2022/04/11 11:02:54;;;;;;;3.97;1.90;;;;;;;;;;5082599;28;20421;-84
2022/04/11 11:05:24;;;;;;;3.47;2.10;;;;;;;;;;5081789;28;20776;-83
2022/04/11 11:08:12;;;;;;;3.67;2.22;;;;;;;;;;5081100;28;20440;-83
2022/04/11 11:10:41;;;;;;;4.50;2.50;;;;;;;;;;5083334;28;20499;-83
2022/04/11 11:13:24;;;;;;;4.22;1.90;;;;;;;;;;5081439;28;20426;-81
2022/04/11 11:15:50;;;;;;;6.90;2.50;;;;;;;;;;5090977;28;20422;-83
2022/04/11 11:18:16;;;;;;;3.08;1.90;;;;;;;;;;5085532;28;20430;-83
2022/04/11 11:20:49;;;;;;;3.60;2.10;;;;;;;;;;5089434;28;20471;-83
2022/04/11 11:23:17;;;;;;;4.32;2.15;;;;;;;;;;5088766;28;20409;-83
2022/04/11 11:25:45;;;;;;;3.28;2.10;;;;;;;;;;5085425;28;20822;-83
2022/04/11 11:28:12;;;;;;;4.13;2.40;;;;;;;;;;5090318;28;20504;-83
2022/04/11 11:30:38;;;;;;;3.38;2.42;;;;;;;;;;5085747;28;20859;-83
2022/04/11 11:33:08;;;;;;;4.22;2.42;;;;;;;;;;5086847;28;20903;-83
2022/04/11 11:35:34;;;;;;;3.53;2.40;;;;;;;;;;5088654;28;20443;-82
2022/04/11 11:38:02;;;;;;;3.60;2.28;;;;;;;;;;5091563;28;20427;-81
2022/04/11 11:40:29;;;;;;;4.45;2.10;;;;;;;;;;5089306;28;20824;-83
2022/04/11 11:42:57;;;;;;;3.70;2.20;;;;;;;;;;5092377;28;20424;-83
2022/04/11 11:45:26;;;;;;;3.88;2.08;;;;;;;;;;5090468;28;20497;-84
2022/04/11 11:47:52;;;;;;;5.00;2.40;;;;;;;;;;5093734;28;20439;-83
2022/04/11 11:50:19;;;;;;;4.35;2.10;;;;;;;;;;5085448;28;20790;-84
2022/04/11 11:52:55;;;;;;;4.85;2.22;;;;;;;;;;5085284;28;20589;-83
2022/04/11 11:55:22;;;;;;;3.70;2.13;;;;;;;;;;5088753;28;20421;-84
2022/04/11 11:57:48;;;;;;;3.80;2.50;;;;;;;;;;5087422;28;20415;-84
2022/04/11 12:00:15;;;;;;;4.60;2.42;;;;;;;;;;5086161;28;20428;-84
2022/04/11 12:05:26;;;;;;;3.33;2.40;;;;;;;;;;5084693;28;20419;-84
2022/04/11 12:08:13;;;;;;;5.18;2.50;;;;;;;;;;5084779;28;20469;-84
2022/04/11 12:10:40;;;;;;;4.35;2.33;;;;;;;;;;5083041;28;20996;-84
2022/04/11 12:13:06;;;;;;;3.70;2.33;;;;;;;;;;5085385;28;20413;-84
2022/04/11 12:15:35;;;;;;;4.47;2.40;;;;;;;;;;5084428;28;20419;-83
2022/04/11 12:18:02;;;;;;;4.90;2.80;;;;;;;;;;5085570;28;20475;-82
2022/04/11 12:20:30;;;;;;;4.03;2.17;;;;;;;;;;5083137;28;20416;-84
2022/04/11 12:23:01;;;;;;;4.57;2.20;;;;;;;;;;5083790;28;20426;-84
2022/04/11 12:25:28;;;;;;;3.42;2.10;;;;;;;;;;5084305;28;20970;-84
2022/04/11 12:28:09;;;;;;;4.40;2.20;;;;;;;;;;5085461;28;20496;-84
2022/04/11 12:30:36;;;;;;;3.97;2.30;;;;;;;;;;5082609;28;20501;-84
2022/04/11 12:33:03;;;;;;;5.40;2.45;;;;;;;;;;5085552;28;20433;-83
2022/04/11 12:35:29;;;;;;;3.70;1.88;;;;;;;;;;5083193;28;20463;-83
2022/04/11 12:37:59;;;;;;;5.90;2.20;;;;;;;;;;5082681;28;20405;-83
2022/04/11 12:40:40;;;;;;;2.80;1.90;;;;;;;;;;5084057;28;20790;-83
2022/04/11 12:43:07;;;;;;;3.00;2.08;;;;;;;;;;5082997;28;20471;-83
2022/04/11 12:45:34;;;;;;;4.80;2.10;;;;;;;;;;5083416;28;20494;-84
2022/04/11 12:48:02;;;;;;;4.22;2.00;;;;;;;;;;5087637;28;20411;-83
2022/04/11 12:50:28;;;;;;;3.90;2.20;;;;;;;;;;5083381;28;20432;-83
2022/04/11 12:52:55;;;;;;;3.13;1.85;;;;;;;;;;5082310;28;20477;-86
2022/04/11 12:55:23;;;;;;;3.40;2.00;;;;;;;;;;5082604;28;20410;-84
2022/04/11 12:57:59;;;;;;;5.10;2.30;;;;;;;;;;5083780;28;20958;-84
2022/04/11 13:00:26;;;;;;;4.40;2.27;;;;;;;;;;5082891;28;20415;-84
2022/04/11 13:02:54;;;;;;;3.58;2.40;;;;;;;;;;5085641;28;20460;-84
2022/04/11 13:05:22;;;;;;;3.92;2.17;;;;;;;;;;5080705;28;20507;-84
2022/04/11 13:07:49;;;;;;;4.35;2.45;;;;;;;;;;5085006;28;20475;-84
2022/04/11 13:10:17;;;;;;;4.47;2.00;;;;;;;;;;5084244;28;20414;-83
2022/04/11 13:12:44;;;;;;;3.20;1.90;;;;;;;;;;5084845;28;20418;-82
2022/04/11 13:15:11;;;;;;;3.25;2.15;;;;;;;;;;5085571;28;20834;-82
2022/04/11 13:20:26;;;;;;;3.65;1.98;;;;;;;;;;5086064;28;20414;-83
2022/04/11 13:22:53;;;;;;;3.17;1.90;;;;;;;;;;5082604;28;20774;-84
2022/04/11 13:25:19;;;;;;;3.03;1.67;;;;;;;;;;5083819;28;20411;-84
2022/04/11 13:27:45;;;;;;;2.60;1.65;;;;;;;;;;5086085;28;20457;-82
2022/04/11 13:30:12;;;;;;;3.70;1.40;;;;;;;;;;5085549;28;20419;-84
2022/04/11 13:32:38;;;;;;;4.63;2.20;;;;;;;;;;5085702;28;20479;-84
2022/04/11 13:35:05;;;;;;;3.22;1.75;;;;;;;;;;5084652;28;20565;-84
2022/04/11 13:37:33;;;;;;;3.72;1.85;;;;;;;;;;5081832;28;20422;-84
2022/04/11 13:40:00;;;;;;;3.90;1.80;;;;;;;;;;5081384;28;20435;-84
2022/04/11 13:42:26;;;;;;;3.97;2.03;;;;;;;;;;5081814;28;20887;-83
2022/04/11 13:44:52;;;;;;;3.83;1.80;;;;;;;;;;5085559;28;20435;-84
2022/04/11 13:47:19;;;;;;;4.05;2.95;;;;;;;;;;5083147;28;20437;-83
2022/04/11 13:49:45;;;;;;;4.43;2.65;;;;;;;;;;5083407;28;20417;-83
2022/04/11 13:52:11;;;;;;;4.03;3.00;;;;;;;;;;5082485;28;20416;-84
2022/04/11 13:54:39;;;;;;;2.97;2.60;;;;;;;;;;5086100;28;20507;-84
2022/04/11 13:57:05;;;;;;;3.63;2.40;;;;;;;;;;5085547;28;20889;-84
2022/04/11 13:59:31;;;;;;;3.97;2.42;;;;;;;;;;5083137;28;20484;-83
2022/04/11 14:01:58;;;;;;;3.53;2.60;;;;;;;;;;5089441;28;20415;-85
2022/04/11 14:04:25;;;;;;;3.97;2.70;;;;;;;;;;5081601;28;20414;-84
2022/04/11 14:06:51;;;;;;;5.45;2.72;;;;;;;;;;5084921;28;20429;-84
2022/04/11 14:09:17;;;;;;;3.17;2.40;;;;;;;;;;5082092;28;20426;-84
2022/04/11 14:11:45;;;;;;;4.60;2.80;;;;;;;;;;5081832;28;20421;-83
2022/04/11 14:14:12;;;;;;;5.00;2.70;;;;;;;;;;5081543;28;20411;-84
2022/04/11 14:16:38;;;;;;;5.30;3.30;;;;;;;;;;5086584;28;20924;-83
2022/04/11 14:19:04;;;;;;;9.13;3.70;;;;;;;;;;5084561;28;20430;-84
2022/04/11 14:21:31;;;;;;;4.40;4.00;;;;;;;;;;5085998;28;20410;-84
2022/04/11 14:23:57;;;;;;;6.32;4.20;;;;;;;;;;5085391;28;20425;-85
2022/04/11 14:26:23;;;;;;;5.28;3.78;;;;;;;;;;5082892;28;20431;-84
2022/04/11 14:28:51;;;;;;;5.40;4.27;;;;;;;;;;5083649;28;20419;-83
2022/04/11 14:31:17;;;;;;;8.02;4.70;;;;;;;;;;5083067;28;20429;-85
2022/04/11 14:33:44;;;;;;;8.98;4.70;;;;;;;;;;5082540;28;20467;-84
2022/04/11 14:36:10;;;;;;;7.40;3.50;;;;;;;;;;5084400;28;20423;-84
2022/04/11 14:38:37;;;;;;;4.30;2.90;;;;;;;;;;5084548;28;20421;-85
2022/04/11 14:41:03;;;;;;;3.30;2.42;;;;;;;;;;5082049;28;20423;-84
2022/04/11 14:43:30;;;;;;;4.47;2.60;;;;;;;;;;5081080;28;20430;-84
2022/04/11 14:45:57;;;;;;;5.63;2.80;;;;;;;;;;5084150;28;20406;-84